createdAt,value
2022-11-06T00:02:21.661Z,4.05
2022-11-06T00:05:42.469Z,4.28
2022-11-06T00:08:44.702Z,4.20
2022-11-06T00:11:48.044Z,3.95
2022-11-06T00:14:50.264Z,3.83
2022-11-06T00:17:52.851Z,4.22
2022-11-06T00:20:55.046Z,4.22
2022-11-06T00:23:59.300Z,4.00
2022-11-06T00:27:01.477Z,3.40
2022-11-06T00:30:06.112Z,3.90
2022-11-06T00:33:08.253Z,3.65
2022-11-06T00:36:16.776Z,3.95
2022-11-06T00:39:19.074Z,3.65
2022-11-06T00:42:21.347Z,3.72
2022-11-06T00:45:24.524Z,3.88
2022-11-06T00:48:27.769Z,4.00
2022-11-06T00:51:41.241Z,4.35
2022-11-06T00:54:43.392Z,3.88
2022-11-06T00:57:45.519Z,4.28
2022-11-06T01:00:47.724Z,3.75
2022-11-06T01:04:17.513Z,3.83
2022-11-06T01:07:19.636Z,3.70
2022-11-06T01:10:21.805Z,3.67
2022-11-06T01:13:24.025Z,3.78
2022-11-06T01:16:26.935Z,3.65
2022-11-06T01:19:29.125Z,3.30
2022-11-06T01:22:31.283Z,3.33
2022-11-06T01:25:33.499Z,4.03
2022-11-06T01:28:35.825Z,3.08
2022-11-06T01:31:38.072Z,3.90
2022-11-06T01:34:40.427Z,3.35
2022-11-06T01:37:43.138Z,3.30
2022-11-06T01:40:47.363Z,4.10
2022-11-06T01:43:49.627Z,3.70
2022-11-06T01:46:51.854Z,3.83
2022-11-06T01:50:03.210Z,3.55
2022-11-06T01:53:05.708Z,3.50
2022-11-06T01:56:11.026Z,3.33
2022-11-06T01:59:16.031Z,3.78
2022-11-06T02:02:18.924Z,3.72
2022-11-06T02:05:21.442Z,3.58
2022-11-06T02:08:24.423Z,3.88
2022-11-06T02:11:26.602Z,4.00
2022-11-06T02:14:48.414Z,3.63
2022-11-06T02:18:18.843Z,3.47
2022-11-06T02:21:33.261Z,3.22
2022-11-06T02:24:52.124Z,3.92
2022-11-06T02:28:25.659Z,3.72
2022-11-06T02:31:32.101Z,3.42
2022-11-06T02:34:38.515Z,3.60
2022-11-06T02:37:45.075Z,3.47
2022-11-06T02:40:52.715Z,3.50
2022-11-06T02:43:57.624Z,4.07
2022-11-06T02:47:05.291Z,4.20
2022-11-06T02:50:15.552Z,4.15
2022-11-06T02:53:22.275Z,4.18
2022-11-06T02:56:28.747Z,3.75
2022-11-06T03:00:03.714Z,4.15
2022-11-06T03:03:26.625Z,3.50
2022-11-06T03:07:24.819Z,3.88
2022-11-06T03:10:33.123Z,4.10
2022-11-06T03:13:43.902Z,3.28
2022-11-06T03:16:46.116Z,3.83
2022-11-06T03:20:00.703Z,3.60
2022-11-06T03:23:33.849Z,3.65
2022-11-06T03:26:45.245Z,3.63
2022-11-06T03:29:57.875Z,3.60
2022-11-06T03:33:10.880Z,3.60
2022-11-06T03:36:23.575Z,3.78
2022-11-06T03:39:32.171Z,3.75
2022-11-06T03:42:36.330Z,3.45
2022-11-06T03:45:41.433Z,3.95
2022-11-06T03:48:57.671Z,2.90
2022-11-06T03:52:34.821Z,3.50
2022-11-06T03:55:48.258Z,3.67
2022-11-06T03:58:51.050Z,3.50
2022-11-06T04:01:56.000Z,3.00
2022-11-06T04:05:02.859Z,3.33
2022-11-06T04:08:26.360Z,3.15
2022-11-06T04:11:52.758Z,3.85
2022-11-06T04:14:56.564Z,3.45
2022-11-06T04:17:58.793Z,3.50
2022-11-06T04:21:33.824Z,2.90
2022-11-06T04:25:00.369Z,3.55
2022-11-06T04:28:29.420Z,3.78
2022-11-06T04:31:43.842Z,2.92
2022-11-06T04:35:05.280Z,3.60
2022-11-06T04:38:23.674Z,2.97
2022-11-06T04:41:36.824Z,3.55
2022-11-06T04:44:41.710Z,3.50
2022-11-06T04:47:45.943Z,3.35
2022-11-06T04:50:55.735Z,3.50
2022-11-06T04:53:58.149Z,3.50
2022-11-06T04:57:01.733Z,3.63
2022-11-06T05:00:04.872Z,3.45
2022-11-06T05:03:07.089Z,3.30
2022-11-06T05:06:09.711Z,4.05
2022-11-06T05:09:11.903Z,3.60
2022-11-06T05:12:14.057Z,3.55
2022-11-06T05:15:16.226Z,2.97
2022-11-06T05:18:18.327Z,4.03
2022-11-06T05:21:38.854Z,3.67
2022-11-06T05:24:40.964Z,3.42
2022-11-06T05:27:43.104Z,3.20
2022-11-06T05:30:45.872Z,3.55
2022-11-06T05:33:48.016Z,3.60
2022-11-06T05:36:50.222Z,3.40
2022-11-06T05:39:52.432Z,3.22
2022-11-06T05:42:54.823Z,3.45
2022-11-06T05:45:57.045Z,3.28
2022-11-06T05:48:59.188Z,3.65
2022-11-06T05:52:01.469Z,3.88
2022-11-06T05:55:04.922Z,3.38
2022-11-06T05:58:08.202Z,2.80
2022-11-06T06:01:11.648Z,3.85
2022-11-06T06:04:13.810Z,3.47
2022-11-06T06:07:15.998Z,3.42
2022-11-06T06:10:18.322Z,3.10
2022-11-06T06:13:20.426Z,3.40
2022-11-06T06:16:22.641Z,3.75
2022-11-06T06:19:24.826Z,3.20
2022-11-06T06:22:26.995Z,3.60
2022-11-06T06:25:30.524Z,3.65
2022-11-06T06:28:33.043Z,3.00
2022-11-06T06:31:35.308Z,3.28
2022-11-06T06:34:37.517Z,2.88
2022-11-06T06:37:39.971Z,3.13
2022-11-06T06:40:42.111Z,3.20
2022-11-06T06:43:47.345Z,3.00
2022-11-06T06:46:49.474Z,2.85
2022-11-06T06:49:51.699Z,2.70
2022-11-06T06:52:58.417Z,2.45
2022-11-06T06:56:01.962Z,2.70
2022-11-06T06:59:04.192Z,2.90
2022-11-06T07:02:06.577Z,2.65
2022-11-06T07:05:08.922Z,2.75
2022-11-06T07:08:11.420Z,3.00
2022-11-06T07:11:13.932Z,2.63
2022-11-06T07:14:16.127Z,2.85
2022-11-06T07:17:18.284Z,2.60
2022-11-06T07:20:20.410Z,2.88
2022-11-06T07:23:22.618Z,3.00
2022-11-06T07:26:24.848Z,2.80
2022-11-06T07:29:26.990Z,3.05
2022-11-06T07:32:29.196Z,2.78
2022-11-06T07:35:33.250Z,2.40
2022-11-06T07:38:36.591Z,2.50
2022-11-06T07:41:38.873Z,2.28
2022-11-06T07:44:40.966Z,2.42
2022-11-06T07:47:43.637Z,2.42
2022-11-06T07:50:45.768Z,2.58
2022-11-06T07:53:48.029Z,2.42
2022-11-06T07:56:50.159Z,2.83
2022-11-06T07:59:52.308Z,2.33
2022-11-06T08:02:54.681Z,2.58
2022-11-06T08:05:58.002Z,2.50
2022-11-06T08:09:00.132Z,1.98
2022-11-06T08:12:02.568Z,2.22
2022-11-06T08:15:05.140Z,2.15
2022-11-06T08:18:11.908Z,2.25
2022-11-06T08:21:14.345Z,2.30
2022-11-06T08:24:21.700Z,2.00
2022-11-06T08:27:24.340Z,1.75
2022-11-06T08:30:27.642Z,2.28
2022-11-06T08:33:29.879Z,1.90
2022-11-06T08:36:32.413Z,2.33
2022-11-06T08:39:34.660Z,2.47
2022-11-06T08:42:37.225Z,2.03
2022-11-06T08:45:41.515Z,2.25
2022-11-06T08:48:43.701Z,2.50
2022-11-06T08:51:45.993Z,2.30
2022-11-06T08:54:48.212Z,2.20
2022-11-06T08:57:50.366Z,2.13
2022-11-06T09:00:52.639Z,2.63
2022-11-06T09:03:54.807Z,2.38
2022-11-06T09:06:58.423Z,1.88
2022-11-06T09:10:00.604Z,2.65
2022-11-06T09:13:02.855Z,2.17
2022-11-06T09:16:10.058Z,2.28
2022-11-06T09:19:15.079Z,2.53
2022-11-06T09:22:17.266Z,2.00
2022-11-06T09:25:20.415Z,2.22
2022-11-06T09:28:23.058Z,2.10
2022-11-06T09:31:25.540Z,2.30
2022-11-06T09:34:27.700Z,2.00
2022-11-06T09:37:29.880Z,2.40
2022-11-06T09:40:39.863Z,1.83
2022-11-06T09:44:17.546Z,2.00
2022-11-06T09:47:24.116Z,1.70
2022-11-06T09:50:32.423Z,2.15
2022-11-06T09:53:54.307Z,1.98
2022-11-06T09:57:04.875Z,2.00
2022-11-06T10:00:10.889Z,2.25
2022-11-06T10:03:35.723Z,2.28
2022-11-06T10:06:37.843Z,1.85
2022-11-06T10:09:39.983Z,1.83
2022-11-06T10:13:02.093Z,2.08
2022-11-06T10:16:33.958Z,1.67
2022-11-06T10:19:45.505Z,1.52
2022-11-06T10:23:11.382Z,1.95
2022-11-06T10:26:19.182Z,1.60
2022-11-06T10:29:39.420Z,1.60
2022-11-06T10:35:51.364Z,1.33
2022-11-06T10:38:55.286Z,1.42
2022-11-06T10:42:21.990Z,1.70
2022-11-06T10:45:26.196Z,1.67
2022-11-06T10:48:35.549Z,1.85
2022-11-06T10:52:04.771Z,1.73
2022-11-06T10:55:51.440Z,1.70
2022-11-06T10:58:54.278Z,1.73
2022-11-06T11:01:56.583Z,2.30
2022-11-06T11:04:58.903Z,2.30
2022-11-06T11:08:01.140Z,2.28
2022-11-06T11:11:05.585Z,1.80
2022-11-06T11:14:21.980Z,1.73
2022-11-06T11:17:24.220Z,1.83
2022-11-06T11:20:32.782Z,1.58
2022-11-06T11:23:35.017Z,1.42
2022-11-06T11:27:01.283Z,1.80
2022-11-06T11:30:05.918Z,1.60
2022-11-06T11:33:13.794Z,2.10
2022-11-06T11:36:16.077Z,1.83
2022-11-06T11:39:21.432Z,1.67
2022-11-06T11:42:32.241Z,1.83
2022-11-06T11:45:34.427Z,2.08
2022-11-06T11:48:43.725Z,2.38
2022-11-06T11:51:48.174Z,2.10
2022-11-06T11:54:54.486Z,2.03
2022-11-06T11:58:00.100Z,2.22
2022-11-06T12:01:04.410Z,1.90
2022-11-06T12:04:18.119Z,1.77
2022-11-06T12:07:29.597Z,2.05
2022-11-06T12:10:39.721Z,2.17
2022-11-06T12:16:48.366Z,2.28
2022-11-06T12:19:55.242Z,2.30
2022-11-06T12:22:59.852Z,2.38
2022-11-06T12:26:09.855Z,2.90
2022-11-06T12:29:14.960Z,2.28
2022-11-06T12:32:44.259Z,2.47
2022-11-06T12:35:53.703Z,2.37
2022-11-06T12:39:06.195Z,2.20
2022-11-06T12:42:12.812Z,2.40
2022-11-06T12:45:15.040Z,2.78
2022-11-06T12:48:54.705Z,2.50
2022-11-06T12:52:02.999Z,2.40
2022-11-06T12:55:35.594Z,2.33
2022-11-06T12:59:07.241Z,2.45
2022-11-06T13:02:18.392Z,2.78
2022-11-06T13:05:30.184Z,2.10
2022-11-06T13:08:54.802Z,2.38
2022-11-06T13:12:11.778Z,2.20
2022-11-06T13:15:27.197Z,2.15
2022-11-06T13:18:40.478Z,2.10
2022-11-06T13:21:51.381Z,1.90
2022-11-06T13:25:05.698Z,2.05
2022-11-06T13:28:17.077Z,2.08
2022-11-06T13:31:22.908Z,2.30
2022-11-06T13:34:29.248Z,2.50
2022-11-06T13:37:39.536Z,2.30
2022-11-06T13:40:44.324Z,2.38
2022-11-06T13:43:53.748Z,2.08
2022-11-06T13:47:07.515Z,2.07
2022-11-06T13:50:26.639Z,2.03
2022-11-06T13:53:59.504Z,2.17
2022-11-06T13:57:14.072Z,2.00
2022-11-06T14:00:23.222Z,2.45
2022-11-06T14:03:40.256Z,2.35
2022-11-06T14:06:43.304Z,2.40
2022-11-06T14:09:47.895Z,2.38
2022-11-06T14:12:50.931Z,2.20
2022-11-06T14:16:13.575Z,2.63
2022-11-06T14:19:21.780Z,2.28
2022-11-06T14:22:38.420Z,2.72
2022-11-06T14:25:40.753Z,1.80
2022-11-06T14:28:44.414Z,2.67
2022-11-06T14:32:11.269Z,2.80
2022-11-06T14:35:28.956Z,2.95
2022-11-06T14:38:35.831Z,3.25
2022-11-06T14:41:39.756Z,2.35
2022-11-06T14:44:45.732Z,2.45
2022-11-06T14:47:52.798Z,2.88
2022-11-06T14:50:55.820Z,2.72
2022-11-06T14:54:00.730Z,3.83
2022-11-06T14:57:04.095Z,3.42
2022-11-06T15:00:07.068Z,3.30
2022-11-06T15:03:21.048Z,3.17
2022-11-06T15:06:29.305Z,4.05
2022-11-06T15:09:37.538Z,3.28
2022-11-06T15:13:18.421Z,4.00
2022-11-06T15:16:22.769Z,4.38
2022-11-06T15:19:46.755Z,4.28
2022-11-06T15:22:58.529Z,4.20
2022-11-06T15:26:14.083Z,3.72
2022-11-06T15:29:16.209Z,3.83
2022-11-06T15:32:24.642Z,4.20
2022-11-06T15:35:31.305Z,4.40
2022-11-06T15:38:41.780Z,4.63
2022-11-06T15:41:44.704Z,4.47
2022-11-06T15:44:48.525Z,4.15
2022-11-06T15:48:02.484Z,4.45
2022-11-06T15:51:25.743Z,4.93
2022-11-06T15:54:48.704Z,4.55
2022-11-06T15:57:51.443Z,4.68
2022-11-06T16:00:53.630Z,4.85
2022-11-06T16:03:56.561Z,3.97
2022-11-06T16:07:00.923Z,4.38
2022-11-06T16:10:04.015Z,4.65
2022-11-06T16:13:07.333Z,5.00
2022-11-06T16:16:34.702Z,4.82
2022-11-06T16:19:39.019Z,4.45
2022-11-06T16:22:41.861Z,4.82
2022-11-06T16:25:44.225Z,5.72
2022-11-06T16:28:49.001Z,5.05
2022-11-06T16:32:08.211Z,5.13
2022-11-06T16:35:34.457Z,5.07
2022-11-06T16:38:43.697Z,4.82
2022-11-06T16:41:57.806Z,6.00
2022-11-06T16:45:09.057Z,6.00
2022-11-06T16:48:11.143Z,4.45
2022-11-06T16:51:28.718Z,6.00
2022-11-06T16:54:32.604Z,5.75
2022-11-06T16:57:45.509Z,5.38
2022-11-06T17:00:59.891Z,5.60
2022-11-06T17:04:03.149Z,5.78
2022-11-06T17:07:05.353Z,5.80
2022-11-06T17:10:25.711Z,5.25
2022-11-06T17:13:31.562Z,5.20
2022-11-06T17:16:56.330Z,5.47
2022-11-06T17:19:58.475Z,6.07
2022-11-06T17:23:00.643Z,6.28
2022-11-06T17:26:07.135Z,5.43
2022-11-06T17:29:10.670Z,6.03
2022-11-06T17:32:12.778Z,5.75
2022-11-06T17:35:15.004Z,6.05
2022-11-06T17:38:18.147Z,5.78
2022-11-06T17:41:32.798Z,6.03
2022-11-06T17:44:34.945Z,5.97
2022-11-06T17:47:37.140Z,5.85
2022-11-06T17:51:14.537Z,6.38
2022-11-06T17:54:18.052Z,6.10
2022-11-06T17:57:24.008Z,6.35
2022-11-06T18:00:26.642Z,6.13
2022-11-06T18:03:32.438Z,6.28
2022-11-06T18:06:38.452Z,6.28
2022-11-06T18:09:40.662Z,5.68
2022-11-06T18:12:42.809Z,6.15
2022-11-06T18:15:44.984Z,7.22
2022-11-06T18:18:48.418Z,7.10
2022-11-06T18:21:51.185Z,5.63
2022-11-06T18:24:53.303Z,6.95
2022-11-06T18:27:59.497Z,6.70
2022-11-06T18:31:04.648Z,6.13
2022-11-06T18:34:07.275Z,7.10
2022-11-06T18:37:09.492Z,6.13
2022-11-06T18:40:12.369Z,6.30
2022-11-06T18:43:14.478Z,6.82
2022-11-06T18:46:18.888Z,6.93
2022-11-06T18:49:21.097Z,7.25
2022-11-06T18:52:44.369Z,7.25
2022-11-06T18:55:46.285Z,7.50
2022-11-06T18:58:48.463Z,5.95
2022-11-06T19:01:50.731Z,7.35
2022-11-06T19:04:54.793Z,6.50
2022-11-06T19:08:00.312Z,7.75
2022-11-06T19:11:05.027Z,6.40
2022-11-06T19:14:07.230Z,6.95
2022-11-06T19:17:09.461Z,7.55
2022-11-06T19:20:14.865Z,7.35
2022-11-06T19:23:17.665Z,7.93
2022-11-06T19:26:35.629Z,8.00
2022-11-06T19:29:38.063Z,7.13
2022-11-06T19:32:40.400Z,7.30
2022-11-06T19:35:42.622Z,7.35
2022-11-06T19:38:44.732Z,7.88
2022-11-06T19:41:47.052Z,6.78
2022-11-06T19:44:49.241Z,8.00
2022-11-06T19:47:52.130Z,7.72
2022-11-06T19:50:59.595Z,8.38
2022-11-06T19:54:02.691Z,7.88
2022-11-06T19:57:28.552Z,7.07
2022-11-06T20:00:26.974Z,8.32
2022-11-06T20:03:29.190Z,7.60
2022-11-06T20:06:31.534Z,7.05
2022-11-06T20:09:34.745Z,7.30
2022-11-06T20:12:37.081Z,7.80
2022-11-06T20:15:39.303Z,8.18
2022-11-06T20:18:42.184Z,7.68
2022-11-06T20:21:44.480Z,7.88
2022-11-06T20:24:46.668Z,8.27
2022-11-06T20:27:49.287Z,7.00
2022-11-06T20:30:51.909Z,8.40
2022-11-06T20:33:54.066Z,6.88
2022-11-06T20:36:56.278Z,8.15
2022-11-06T20:39:58.595Z,7.18
2022-11-06T20:43:00.842Z,7.43
2022-11-06T20:46:04.119Z,6.82
2022-11-06T20:49:06.255Z,6.72
2022-11-06T20:52:15.915Z,7.57
2022-11-06T20:55:18.108Z,7.50
2022-11-06T20:58:20.848Z,7.60
2022-11-06T21:01:25.623Z,7.38
2022-11-06T21:04:27.995Z,8.05
2022-11-06T21:07:30.203Z,7.18
2022-11-06T21:10:32.403Z,7.60
2022-11-06T21:13:35.475Z,7.65
2022-11-06T21:16:38.125Z,7.18
2022-11-06T21:19:40.294Z,6.90
2022-11-06T21:22:42.501Z,6.82
2022-11-06T21:25:45.499Z,7.40
2022-11-06T21:28:48.083Z,7.95
2022-11-06T21:31:51.072Z,7.93
2022-11-06T21:34:53.387Z,7.55
2022-11-06T21:37:55.519Z,6.57
2022-11-06T21:40:57.681Z,8.32
2022-11-06T21:44:00.364Z,7.45
2022-11-06T21:47:02.534Z,6.85
2022-11-06T21:50:05.084Z,7.03
2022-11-06T21:53:25.665Z,6.35
2022-11-06T21:56:28.112Z,7.65
2022-11-06T21:59:30.695Z,7.68
2022-11-06T22:02:32.969Z,7.72
2022-11-06T22:05:35.241Z,8.43
2022-11-06T22:08:43.457Z,7.90
2022-11-06T22:11:45.607Z,7.20
2022-11-06T22:14:47.756Z,7.28
2022-11-06T22:17:50.027Z,7.38
2022-11-06T22:20:52.282Z,7.53
2022-11-06T22:23:54.492Z,7.68
2022-11-06T22:26:56.669Z,7.65
2022-11-06T22:29:59.275Z,7.20
2022-11-06T22:33:01.551Z,7.38
2022-11-06T22:36:14.468Z,7.47
2022-11-06T22:39:16.678Z,7.97
2022-11-06T22:42:18.893Z,8.13
2022-11-06T22:45:21.216Z,7.25
2022-11-06T22:48:23.471Z,7.32
2022-11-06T22:51:28.462Z,7.43
2022-11-06T22:54:30.714Z,5.90
2022-11-06T22:57:32.855Z,6.18
2022-11-06T23:00:35.089Z,8.13
2022-11-06T23:03:37.695Z,6.50
2022-11-06T23:06:39.830Z,6.45
2022-11-06T23:09:41.943Z,5.90
2022-11-06T23:12:44.112Z,6.10
2022-11-06T23:15:46.612Z,5.57
2022-11-06T23:18:49.220Z,5.75
2022-11-06T23:21:52.666Z,6.22
2022-11-06T23:24:56.346Z,6.40
2022-11-06T23:28:00.299Z,5.95
2022-11-06T23:31:07.149Z,4.90
2022-11-06T23:34:09.411Z,4.72
2022-11-06T23:37:11.655Z,5.65
2022-11-06T23:43:50.798Z,4.65
2022-11-06T23:46:53.246Z,4.30
2022-11-06T23:49:55.659Z,4.65
2022-11-06T23:52:57.861Z,4.50
2022-11-06T23:56:05.874Z,3.83
2022-11-06T23:59:08.307Z,3.97
